Deering, AK

10:41 PM AKDT on August 01, 2014 (GMT -0800)
Deering (New) (PADE) Elev 16 ft | 66.07 °N, 162.77 °W | Change Station

Current weather conditions updated 48 minutes ago

Clear
Clear
61 °F
Feels Like 61 °F
N
0
Wind Variable Wind from North

Tomorrow is forecast to be nearly the same temperature as today.

Today
High -- | Low -- °F
--% Chance of Precip.
Yesterday
High -- | Low -- °F
Precip. -- in
5:36 AM 0:14 AM
Waxing Crescent, 33% visible
Pressure 30.00 in
Visibility 10.0 miles
Clouds Clear
Dew Point 53 °F
Humidity 75%
Rainfall 0.00 in
Snow Depth Not available.
UV 1 out of 12
Pollen Not available.
Air Quality Not available.
Flu Activity Not available.
METAR PADE 020553Z AUTO 00000KT 10SM CLR 16/12 A3000 RMK AO2 SLP159 T01610117 10172 20144 56006 TSNO $

More Conditions Fewer Conditions

Pressure 30.00 in
Visibility 10.0 miles
Clouds Clear
Dew Point 53 °F
Humidity 75%
Rainfall 0.00 in
Snow Depth Not available.
UV 1 out of 12
Pollen Not available.
Air Quality Not available.
Flu Activity Not available.
METAR PADE 020553Z AUTO 00000KT 10SM CLR 16/12 A3000 RMK AO2 SLP159 T01610117 10172 20144 56006 TSNO $

More Conditions Fewer Conditions

10-Day Weather Forecast

Almanac

Astronomy

Aug. 01, 2014 Rise Set
Actual Time 5:36 AM AKDT 12:14 AM AKDT
Civil Twilight 3:29 AM AKDT 2:25 AM AKDT
Nautical Twilight Sun does not rise Sun does not rise
Astronomical Twilight Sun does not rise Sun does not rise
Moon 2:04 PM AKDT (8/1) No Moon Set
Length of Visible Light 22h 55m
Length of Day
18h 37m
Tomorrow will be 7m 53s shorter.
Waxing Crescent, 33% of the Moon is Illuminated
Aug 2
Waxing Crescent
Aug 3
First Quarter
Aug 10
Full
Aug 17
Last Quarter
Aug 25
New

Community

WunderPhotos

Upload Photos

1,739,830 photos uploaded!

Nearby

Snow Depth

Station Depth Elevation
Rocky Point 1 in 500 ft
Gobblers Knob 0 in 2030 ft
Coldfoot 0 in 1040 ft
Atigun Pass 0 in 4800 ft
Imnaviat Creek 0 in 3050 ft

Earthquake Activity

City Distance Mag. Time & Date
No recent earthquake activity has been reported nearby.
Minimum magnitude displayed is 2.5.

Coastal Water Temperatures

Place Temperature
No Stations Reporting

Nearby Weather Stations

There are no personal weather stations in this area.